Time;durP1;ratioP1;P1;durP2;ratioP2;P2;SDS_P1;SDS_P2;PMS_P1;PMS_P2;Temp;Humidity;BMP_temperature;BMP_pressure;BME280_temperature;BME280_humidity;BME280_pressure;Samples;Min_cycle;Max_cycle;Signal;HPM_P1;HPM_P2
2021/08/14 00:00:44;;;;;;;;;;;;;;;20.77;55.19;101021.97;1608595;87;21037;-60
2021/08/14 00:03:11;;;;;;;7.15;5.25;;;;;;;20.71;55.64;101020.22;1638158;86;20161;-60
2021/08/14 00:05:37;;;;;;;5.58;4.90;;;;;;;20.69;55.47;101019.64;1717495;82;21017;-59
2021/08/14 00:08:05;;;;;;;4.67;3.75;;;;;;;20.71;55.53;101019.41;1717382;83;21107;-60
2021/08/14 00:10:33;;;;;;;6.58;4.35;;;;;;;20.66;55.66;101019.30;1717148;82;21458;-60
2021/08/14 00:13:00;;;;;;;4.75;4.40;;;;;;;20.64;55.86;101024.94;1712802;82;21083;-57
2021/08/14 00:15:28;;;;;;;4.58;3.85;;;;;;;20.62;55.84;101025.72;1718938;82;21036;-58
2021/08/14 00:17:54;;;;;;;4.20;3.90;;;;;;;20.53;56.45;101028.46;1698985;82;21124;-61
2021/08/14 00:20:21;;;;;;;4.65;4.35;;;;;;;20.47;56.64;101031.59;1691997;82;21148;-61
2021/08/14 00:22:48;;;;;;;4.85;4.47;;;;;;;20.39;56.63;101028.72;1723694;82;21030;-62
2021/08/14 00:25:14;;;;;;;4.60;4.33;;;;;;;20.35;57.02;101035.67;1693187;83;21050;-61
2021/08/14 00:27:40;;;;;;;;;;;;;;;20.34;57.01;101038.09;1693281;83;21673;-61
2021/08/14 00:30:07;;;;;;;5.00;4.22;;;;;;;20.33;57.00;101039.14;1693530;83;20138;-60
2021/08/14 00:32:33;;;;;;;5.25;4.85;;;;;;;20.20;57.30;101040.20;1700385;83;20986;-60
2021/08/14 00:35:01;;;;;;;4.75;4.12;;;;;;;20.13;57.54;101045.44;1717210;82;20976;-60
2021/08/14 00:37:27;;;;;;;6.67;4.95;;;;;;;20.10;57.90;101044.55;1707687;82;21097;-60
2021/08/14 00:39:55;;;;;;;5.20;4.75;;;;;;;20.07;58.16;101042.33;1704196;82;21007;-60
2021/08/14 00:42:21;;;;;;;;;;;;;;;20.00;58.03;101051.38;1703963;82;21438;-62
2021/08/14 00:44:47;;;;;;;4.97;4.15;;;;;;;19.94;58.46;101053.65;1708244;82;20170;-62
2021/08/14 00:47:13;;;;;;;4.35;4.00;;;;;;;19.80;58.58;101048.98;1712253;83;21094;-58
2021/08/14 00:49:40;;;;;;;5.37;4.87;;;;;;;19.72;59.68;101056.57;1713918;82;21034;-54
2021/08/14 00:52:06;;;;;;;4.72;4.40;;;;;;;19.70;59.30;101054.63;1715268;83;20986;-59
2021/08/14 00:54:34;;;;;;;5.42;4.70;;;;;;;19.56;59.85;101055.37;1696780;82;21015;-59
2021/08/14 00:57:02;;;;;;;5.08;4.33;;;;;;;19.42;60.28;101054.21;1720554;82;21515;-61
2021/08/14 00:59:30;;;;;;;7.95;4.87;;;;;;;19.31;60.61;101053.64;1706300;82;21026;-64
2021/08/14 01:01:56;;;;;;;6.28;5.05;;;;;;;19.20;61.00;101057.93;1691196;83;22551;-61
2021/08/14 01:04:22;;;;;;;6.37;4.15;;;;;;;19.08;61.33;101059.77;1693068;83;21061;-60
2021/08/14 01:06:52;;;;;;;5.05;4.75;;;;;;;18.96;61.74;101065.62;1690410;83;21040;-59
2021/08/14 01:09:18;;;;;;;5.65;5.25;;;;;;;18.84;62.20;101067.72;1688666;83;21520;-58
2021/08/14 01:11:44;;;;;;;;;;;;;;;18.74;62.49;101070.11;1699227;82;21076;-59
2021/08/14 01:14:13;;;;;;;5.03;4.42;;;;;;;18.68;62.78;101070.48;1704323;82;20425;-59
2021/08/14 01:16:42;;;;;;;4.85;4.35;;;;;;;18.62;62.86;101067.84;1703734;82;21076;-59
2021/08/14 01:19:09;;;;;;;5.35;4.53;;;;;;;18.60;62.89;101063.19;1710924;82;21065;-58
2021/08/14 01:21:34;;;;;;;6.45;4.50;;;;;;;18.59;63.09;101061.02;1712736;82;21001;-58
2021/08/14 01:24:04;;;;;;;8.08;5.42;;;;;;;18.54;63.19;101057.34;1680489;82;21000;-59
2021/08/14 01:26:32;;;;;;;5.97;4.83;;;;;;;18.49;63.32;101064.20;1679070;84;21096;-59
2021/08/14 01:28:58;;;;;;;5.75;4.75;;;;;;;18.47;63.50;101065.48;1673042;83;21527;-59
2021/08/14 01:31:26;;;;;;;5.15;4.17;;;;;;;18.41;63.67;101061.81;1689274;82;21088;-59
2021/08/14 01:33:55;;;;;;;5.80;4.22;;;;;;;18.41;63.78;101058.30;1686323;83;21488;-59
2021/08/14 01:36:21;;;;;;;6.35;4.87;;;;;;;18.44;63.72;101059.17;1685762;83;20954;-59
2021/08/14 01:38:53;;;;;;;4.58;4.17;;;;;;;18.39;63.69;101066.61;1671694;83;21100;-59
2021/08/14 01:41:22;;;;;;;5.58;4.92;;;;;;;18.30;63.99;101063.89;1679386;84;21067;-59
2021/08/14 01:44:05;;;;;;;11.15;4.87;;;;;;;17.96;64.15;101024.77;1681671;83;22167;-60
2021/08/14 01:46:41;;;;;;;5.97;4.83;;;;;;;18.15;64.36;101070.15;1678345;83;21053;-59
2021/08/14 01:49:06;;;;;;;5.05;4.65;;;;;;;18.07;64.49;101062.63;1671387;83;21010;-60
2021/08/14 01:51:32;;;;;;;;;;;;;;;18.05;64.64;101057.98;1689362;83;21072;-59
2021/08/14 01:54:04;;;;;;;7.15;4.62;;;;;;;18.06;64.51;101060.15;1676511;83;20194;-60
2021/08/14 01:56:32;;;;;;;5.83;4.42;;;;;;;18.01;64.59;101063.52;1686515;83;21020;-59
2021/08/14 01:59:00;;;;;;;5.37;4.78;;;;;;;17.99;64.55;101064.27;1697588;83;21052;-59
2021/08/14 02:01:29;;;;;;;7.95;4.70;;;;;;;17.96;64.55;101063.34;1687990;83;21088;-61
2021/08/14 02:03:55;;;;;;;5.75;5.17;;;;;;;17.93;64.72;101063.77;1685238;83;21113;-59
2021/08/14 02:06:24;;;;;;;4.92;4.50;;;;;;;17.90;64.71;101061.53;1689458;83;20985;-60
2021/08/14 02:08:53;;;;;;;7.45;4.90;;;;;;;17.84;64.78;101063.73;1690826;83;21024;-62
2021/08/14 02:11:26;;;;;;;5.20;4.70;;;;;;;17.83;64.77;101064.23;1665923;83;21060;-61
2021/08/14 02:13:56;;;;;;;5.97;4.80;;;;;;;17.87;64.68;101061.43;1672827;84;21030;-61
2021/08/14 02:16:23;;;;;;;4.50;4.10;;;;;;;17.92;64.49;101060.79;1682802;84;21022;-60
2021/08/14 02:18:49;;;;;;;5.80;5.17;;;;;;;17.92;64.27;101060.79;1679852;84;21233;-62
2021/08/14 02:21:16;;;;;;;4.87;4.37;;;;;;;17.92;64.10;101048.66;1680792;84;21040;-62
2021/08/14 02:23:43;;;;;;;5.62;5.05;;;;;;;17.93;63.89;101052.16;1676889;84;20993;-62
2021/08/14 02:26:10;;;;;;;7.15;5.25;;;;;;;17.93;63.81;101051.63;1676534;84;21033;-62
2021/08/14 02:28:37;;;;;;;6.22;5.62;;;;;;;17.93;63.49;101055.68;1674988;84;21110;-62
2021/08/14 02:31:06;;;;;;;5.00;4.50;;;;;;;17.63;63.45;101019.91;1677545;84;21529;-62
2021/08/14 02:33:33;;;;;;;8.28;4.12;;;;;;;17.88;63.30;101062.28;1689922;83;21565;-59
2021/08/14 02:36:04;;;;;;;4.22;3.58;;;;;;;17.88;62.92;101060.40;1690241;83;21066;-60
2021/08/14 02:38:33;;;;;;;5.08;4.58;;;;;;;17.88;62.24;101068.48;1696891;83;20994;-61
2021/08/14 02:41:02;;;;;;;6.25;3.85;;;;;;;17.85;62.00;101065.41;1698153;83;21026;-60
2021/08/14 02:43:31;;;;;;;3.50;3.30;;;;;;;17.64;61.51;101033.67;1693701;83;21323;-59
2021/08/14 02:46:00;;;;;;;3.20;3.02;;;;;;;17.87;61.21;101066.00;1702907;82;20943;-60
2021/08/14 02:48:31;;;;;;;2.62;2.47;;;;;;;17.92;60.52;101063.48;1692353;82;21572;-59
2021/08/14 02:50:58;;;;;;;6.33;2.90;;;;;;;17.98;60.04;101063.13;1707190;83;21031;-59
2021/08/14 02:53:26;;;;;;;4.00;3.60;;;;;;;18.04;59.63;101068.45;1708867;83;21568;-60
2021/08/14 02:55:53;;;;;;;3.47;3.27;;;;;;;18.09;59.65;101063.77;1697681;84;21077;-60
2021/08/14 02:58:19;;;;;;;5.30;4.20;;;;;;;18.15;59.60;101062.88;1700544;83;21042;-60
2021/08/14 03:00:46;;;;;;;4.67;4.28;;;;;;;18.21;59.91;101059.28;1704616;82;21588;-60
2021/08/14 03:03:13;;;;;;;5.15;3.42;;;;;;;18.29;60.17;101060.91;1704339;83;21625;-62
2021/08/14 03:05:41;;;;;;;3.60;3.35;;;;;;;18.32;59.97;101059.63;1690935;83;21465;-60
2021/08/14 03:08:10;;;;;;;2.65;2.45;;;;;;;18.30;59.96;101059.84;1696105;84;21564;-59
2021/08/14 03:10:39;;;;;;;3.08;2.45;;;;;;;18.29;59.66;101056.86;1682209;83;21093;-59
2021/08/14 03:13:10;;;;;;;2.98;2.77;;;;;;;18.35;59.33;101056.49;1659626;84;20990;-59
2021/08/14 03:15:36;;;;;;;4.58;2.77;;;;;;;18.51;59.05;101061.29;1664342;86;21023;-59
2021/08/14 03:18:04;;;;;;;4.22;3.87;;;;;;;18.77;58.56;101058.83;1655077;85;21138;-59
2021/08/14 03:20:32;;;;;;;2.67;2.50;;;;;;;19.07;57.89;101054.05;1657736;85;21146;-59
2021/08/14 03:23:01;;;;;;;3.33;3.05;;;;;;;19.38;56.98;101046.27;1658725;84;20986;-59
2021/08/14 03:25:29;;;;;;;2.83;2.62;;;;;;;19.70;56.23;101043.81;1667867;84;21011;-59
2021/08/14 03:27:55;;;;;;;2.25;2.15;;;;;;;19.95;55.19;101045.84;1681212;84;21102;-59
2021/08/14 03:30:21;;;;;;;;;;;;;;;20.16;54.12;101039.03;1670319;84;21074;-60
2021/08/14 03:32:49;;;;;;;2.37;2.17;;;;;;;20.45;52.69;101051.85;1676581;84;20133;-59
2021/08/14 03:35:17;;;;;;;5.10;4.53;;;;;;;20.56;52.31;101048.31;1680301;83;21074;-59
2021/08/14 03:37:43;;;;;;;3.50;3.05;;;;;;;20.72;51.73;101049.48;1669568;84;21019;-59
2021/08/14 03:40:12;;;;;;;2.58;2.27;;;;;;;20.88;51.42;101049.28;1677065;85;21127;-59
2021/08/14 03:42:38;;;;;;;4.72;2.72;;;;;;;21.06;50.93;101047.77;1675293;85;21094;-58
2021/08/14 03:45:07;;;;;;;2.95;2.62;;;;;;;21.23;50.35;101054.59;1665355;84;20996;-59
2021/08/14 03:47:33;;;;;;;4.70;2.83;;;;;;;21.39;49.71;101058.41;1676744;84;21524;-59
2021/08/14 03:49:59;;;;;;;5.45;4.72;;;;;;;21.52;49.26;101060.84;1691363;83;21538;-59
2021/08/14 03:52:26;;;;;;;2.80;2.60;;;;;;;21.72;48.96;101058.23;1687896;84;21008;-58
2021/08/14 03:54:52;;;;;;;;;;;;;;;21.90;48.17;101048.47;1699632;83;21017;-59
2021/08/14 03:57:18;;;;;;;3.22;2.30;;;;;;;22.03;48.03;101053.30;1660313;84;20154;-58
2021/08/14 03:59:45;;;;;;;3.55;2.25;;;;;;;22.24;48.18;101055.78;1670926;84;21054;-59
2021/08/14 04:02:11;;;;;;;2.17;2.00;;;;;;;22.70;47.40;101057.28;1683525;84;21062;-59
2021/08/14 04:04:37;;;;;;;2.62;2.42;;;;;;;23.23;46.30;101054.95;1679430;83;21032;-60
2021/08/14 04:07:04;;;;;;;4.72;2.52;;;;;;;23.76;44.93;101051.11;1671965;83;21068;-58
2021/08/14 04:09:30;;;;;;;3.02;2.00;;;;;;;24.14;43.86;101045.16;1676450;83;21043;-59
2021/08/14 04:11:58;;;;;;;3.12;2.20;;;;;;;24.44;43.65;101046.45;1675956;83;21148;-58
2021/08/14 04:14:25;;;;;;;4.53;3.00;;;;;;;24.76;43.03;101051.81;1646814;86;21477;-59
2021/08/14 04:16:51;;;;;;;4.78;2.40;;;;;;;25.11;42.30;101053.56;1644711;86;21065;-60
2021/08/14 04:19:17;;;;;;;2.47;2.00;;;;;;;25.37;41.78;101051.23;1646484;86;21588;-59
2021/08/14 04:21:44;;;;;;;2.85;2.27;;;;;;;25.69;41.26;101048.78;1645111;86;21065;-59
2021/08/14 04:24:11;;;;;;;2.90;2.70;;;;;;;25.95;40.63;101043.36;1646600;86;21030;-58
2021/08/14 04:26:39;;;;;;;2.58;2.02;;;;;;;25.97;40.40;101054.83;1647144;86;21153;-59
2021/08/14 04:29:06;;;;;;;4.83;3.22;;;;;;;25.91;40.62;101058.62;1652810;86;20999;-58
2021/08/14 04:31:33;;;;;;;4.10;2.95;;;;;;;25.96;41.21;101054.02;1643794;86;21105;-60
2021/08/14 04:33:59;;;;;;;3.50;3.20;;;;;;;26.20;40.99;101054.27;1687177;82;20947;-61
2021/08/14 04:36:26;;;;;;;5.17;4.75;;;;;;;26.63;40.34;101057.19;1720685;81;21134;-59
2021/08/14 04:38:53;;;;;;;10.08;8.38;;;;;;;27.00;40.19;101057.57;1719913;82;21742;-61
2021/08/14 04:41:19;;;;;;;8.70;6.87;;;;;;;27.37;39.21;101056.30;1733203;82;21023;-61
2021/08/14 04:43:45;;;;;;;8.78;4.03;;;;;;;27.67;38.88;101053.62;1731541;82;21072;-58
2021/08/14 04:46:11;;;;;;;3.80;3.50;;;;;;;27.94;38.41;101055.91;1671607;84;21053;-57
2021/08/14 04:48:37;;;;;;;3.20;3.00;;;;;;;28.05;38.13;101056.60;1668326;84;21026;-56
2021/08/14 04:51:03;;;;;;;4.37;3.02;;;;;;;28.07;38.26;101059.34;1676444;84;21606;-58
2021/08/14 04:53:31;;;;;;;2.92;2.72;;;;;;;28.20;38.24;101057.01;1672422;84;21583;-59
2021/08/14 04:55:57;;;;;;;2.77;2.58;;;;;;;28.41;37.83;101056.27;1641988;84;21018;-58
2021/08/14 04:58:23;;;;;;;3.17;2.90;;;;;;;28.50;37.78;101055.33;1649013;85;21563;-61
2021/08/14 05:00:50;;;;;;;3.95;2.55;;;;;;;28.71;37.61;101061.42;1640731;87;21671;-60
2021/08/14 05:03:21;;;;;;;4.05;2.52;;;;;;;28.91;37.32;101056.24;1624955;87;21150;-59
2021/08/14 05:05:45;;;;;;;2.65;2.45;;;;;;;28.90;37.04;101052.41;1610756;88;21094;-56
2021/08/14 05:08:12;;;;;;;5.65;2.58;;;;;;;28.52;37.56;101055.08;1600174;88;21054;-55
2021/08/14 05:10:38;;;;;;;3.12;2.15;;;;;;;28.14;38.39;101060.36;1596372;88;21061;-56
2021/08/14 05:13:05;;;;;;;3.47;2.70;;;;;;;27.95;38.88;101056.15;1642481;85;21012;-53
2021/08/14 05:15:33;;;;;;;4.85;2.05;;;;;;;28.08;38.77;101047.25;1647883;85;21066;-63
2021/08/14 05:17:59;;;;;;;4.75;2.10;;;;;;;28.25;38.35;101049.55;1649358;85;21735;-64
2021/08/14 05:20:25;;;;;;;4.95;2.22;;;;;;;28.25;38.36;101046.81;1639591;85;21135;-67
2021/08/14 05:22:53;;;;;;;3.10;2.08;;;;;;;28.36;38.59;101050.27;1662609;84;21501;-62
2021/08/14 05:25:19;;;;;;;5.12;2.85;;;;;;;28.30;37.93;101047.33;1673245;85;21087;-55
2021/08/14 05:27:47;;;;;;;3.55;3.27;;;;;;;27.89;38.38;101053.20;1667421;85;21569;-60
2021/08/14 05:30:14;;;;;;;2.60;2.40;;;;;;;27.24;39.61;101055.54;1678784;84;21037;-61
2021/08/14 05:32:40;;;;;;;5.58;3.25;;;;;;;26.79;40.66;101061.52;1668632;84;21010;-60
2021/08/14 05:35:09;;;;;;;3.85;2.95;;;;;;;26.61;40.92;101060.19;1672234;85;21036;-62
2021/08/14 05:37:36;;;;;;;3.92;2.95;;;;;;;26.55;41.46;101059.91;1665166;84;21014;-59
2021/08/14 05:40:05;;;;;;;5.53;3.50;;;;;;;26.35;41.11;101064.88;1675715;85;21201;-61
2021/08/14 05:42:31;;;;;;;3.80;3.12;;;;;;;26.22;41.49;101065.73;1671592;85;21091;-59
2021/08/14 05:44:57;;;;;;;4.42;3.70;;;;;;;26.06;41.21;101061.38;1668940;84;21006;-63
2021/08/14 05:47:25;;;;;;;3.92;3.50;;;;;;;25.87;41.74;101061.08;1669584;84;21061;-61
2021/08/14 05:49:52;;;;;;;6.50;4.28;;;;;;;25.78;42.36;101056.70;1652867;85;21061;-61
2021/08/14 05:52:18;;;;;;;5.25;3.95;;;;;;;25.75;42.19;101062.73;1660622;84;21098;-59
2021/08/14 05:54:46;;;;;;;7.17;3.95;;;;;;;25.53;42.59;101060.80;1657939;84;21018;-60
2021/08/14 05:57:12;;;;;;;5.83;4.10;;;;;;;25.57;42.87;101061.34;1655630;85;20990;-64
2021/08/14 05:59:40;;;;;;;4.78;4.37;;;;;;;25.83;42.98;101066.27;1687635;83;20981;-60
2021/08/14 06:02:07;;;;;;;5.25;3.87;;;;;;;26.04;42.55;101059.47;1644422;84;20990;-55
2021/08/14 06:04:33;;;;;;;10.95;4.25;;;;;;;26.29;42.11;101068.17;1653996;85;21560;-55
2021/08/14 06:07:00;;;;;;;5.47;4.10;;;;;;;26.27;41.96;101063.53;1683309;83;22393;-59
2021/08/14 06:09:27;;;;;;;5.20;3.50;;;;;;;26.00;42.74;101072.04;1687447;83;21552;-65
2021/08/14 06:11:53;;;;;;;4.42;3.70;;;;;;;25.87;43.23;101068.47;1682065;83;21057;-60
2021/08/14 06:14:19;;;;;;;4.45;3.30;;;;;;;26.09;43.13;101067.67;1672867;85;21054;-62
2021/08/14 06:16:45;;;;;;;4.20;2.80;;;;;;;26.37;42.54;101071.72;1656912;85;21038;-63
2021/08/14 06:19:11;;;;;;;3.52;3.17;;;;;;;26.57;42.82;101069.47;1673936;84;21225;-61
2021/08/14 06:21:39;;;;;;;6.47;3.87;;;;;;;26.87;42.39;101066.95;1660198;85;21054;-62
2021/08/14 06:24:06;;;;;;;4.85;3.15;;;;;;;27.06;40.51;101065.77;1674958;84;21022;-65
2021/08/14 06:26:32;;;;;;;5.87;3.55;;;;;;;27.07;40.07;101069.59;1664469;85;21417;-62
2021/08/14 06:28:59;;;;;;;9.03;3.42;;;;;;;27.01;40.34;101069.33;1685983;83;21030;-61
2021/08/14 06:31:25;;;;;;;6.03;2.77;;;;;;;27.06;39.31;101068.50;1689269;83;21086;-56
2021/08/14 06:33:52;;;;;;;3.25;2.95;;;;;;;26.95;39.69;101066.35;1676424;84;21116;-65
2021/08/14 06:36:20;;;;;;;5.30;2.72;;;;;;;26.91;39.92;101070.75;1675618;84;21495;-63
2021/08/14 06:38:56;;;;;;;3.85;2.98;;;;;;;26.76;39.84;101066.97;1669044;84;21941;-62
2021/08/14 06:41:22;;;;;;;6.28;2.58;;;;;;;26.71;39.51;101074.37;1645869;85;21272;-61
2021/08/14 06:43:49;;;;;;;4.58;2.98;;;;;;;26.73;40.14;101070.81;1699863;84;21051;-62
2021/08/14 06:46:15;;;;;;;7.90;2.98;;;;;;;26.62;40.52;101072.78;1659720;84;21046;-59
2021/08/14 06:48:43;;;;;;;4.53;2.77;;;;;;;26.71;40.61;101068.91;1641900;86;21082;-63
2021/08/14 06:51:14;;;;;;;6.40;3.90;;;;;;;26.98;40.45;101069.34;1646966;85;21100;-58
2021/08/14 06:53:42;;;;;;;4.05;3.20;;;;;;;27.38;39.75;101066.70;1620237;87;21079;-55
2021/08/14 06:56:08;;;;;;;6.28;3.75;;;;;;;27.64;39.33;101064.59;1638014;86;21078;-61
2021/08/14 06:58:34;;;;;;;4.80;2.62;;;;;;;27.75;38.87;101060.68;1650769;85;21533;-53
2021/08/14 07:01:01;;;;;;;2.65;2.37;;;;;;;27.70;38.97;101062.08;1648850;86;21358;-60
2021/08/14 07:03:27;;;;;;;7.70;2.55;;;;;;;27.57;38.06;101056.69;1675369;83;21603;-59
2021/08/14 07:05:56;;;;;;;2.83;2.62;;;;;;;27.52;38.39;101052.65;1666250;84;21105;-58
2021/08/14 07:08:22;;;;;;;4.33;2.85;;;;;;;27.40;38.00;101054.10;1658930;84;21703;-57
2021/08/14 07:10:50;;;;;;;2.42;1.98;;;;;;;27.37;38.25;101058.23;1676816;85;21113;-64
2021/08/14 07:13:16;;;;;;;3.05;2.33;;;;;;;27.28;38.05;101054.45;1658629;83;21130;-61
2021/08/14 07:18:47;;;;;;;;;;;;;;;27.28;38.16;101042.14;1768200;77;22846;-68
2021/08/14 07:21:13;;;;;;;2.60;2.40;;;;;;;27.19;37.58;101052.27;1752127;80;20116;-57
2021/08/14 07:23:40;;;;;;;3.50;2.27;;;;;;;26.95;37.90;101052.11;1722673;80;21048;-55
2021/08/14 07:26:06;;;;;;;1.95;1.67;;;;;;;26.81;38.06;101052.47;1713647;82;21146;-56
2021/08/14 07:28:32;;;;;;;2.37;2.08;;;;;;;26.72;38.53;101045.95;1713140;82;21578;-64
2021/08/14 07:30:59;;;;;;;2.85;1.30;;;;;;;26.65;38.66;101044.05;1717956;82;21546;-72
2021/08/14 07:33:25;;;;;;;1.57;1.47;;;;;;;26.57;37.52;101044.05;1717328;82;21073;-70
2021/08/14 07:35:52;;;;;;;2.37;2.00;;;;;;;26.55;35.61;101042.95;1686628;83;21019;-68
2021/08/14 07:38:20;;;;;;;1.72;1.62;;;;;;;26.50;35.20;101040.79;1676939;84;21551;-68
2021/08/14 07:40:46;;;;;;;3.55;1.17;;;;;;;26.43;36.08;101039.73;1648065;85;21056;-67
2021/08/14 07:43:14;;;;;;;2.33;1.52;;;;;;;26.41;35.21;101040.56;1682209;84;21092;-67
2021/08/14 07:45:40;;;;;;;2.62;1.32;;;;;;;26.33;34.80;101035.09;1693912;83;21049;-68
2021/08/14 07:48:08;;;;;;;6.67;1.90;;;;;;;26.24;35.30;101028.58;1700654;83;21037;-70
2021/08/14 07:50:36;;;;;;;3.85;3.50;;;;;;;26.17;35.87;101026.67;1696278;83;21025;-66
2021/08/14 07:53:03;;;;;;;4.35;1.95;;;;;;;26.21;35.86;101025.83;1703276;83;20977;-66
2021/08/14 07:55:32;;;;;;;5.05;1.40;;;;;;;26.31;35.23;101020.08;1685515;84;21109;-66
2021/08/14 07:57:58;;;;;;;3.50;1.10;;;;;;;26.32;35.40;101021.72;1701340;83;21598;-66
2021/08/14 08:00:27;;;;;;;2.95;1.02;;;;;;;26.38;35.11;101017.88;1699414;83;21146;-64
2021/08/14 08:02:54;;;;;;;1.67;0.75;;;;;;;26.43;33.50;101017.87;1670308;84;21169;-66
2021/08/14 08:05:20;;;;;;;3.37;0.80;;;;;;;26.38;33.47;101015.14;1670999;84;21040;-66
2021/08/14 08:07:47;;;;;;;1.92;0.80;;;;;;;26.37;34.12;101014.33;1623927;87;21386;-66
2021/08/14 08:10:17;;;;;;;1.92;0.85;;;;;;;26.47;34.38;101011.30;1675196;84;21538;-66
2021/08/14 08:12:45;;;;;;;1.52;1.22;;;;;;;26.57;34.28;101014.79;1674999;83;21490;-66
2021/08/14 08:15:12;;;;;;;1.70;0.80;;;;;;;26.61;34.25;101016.45;1677956;84;21058;-67
2021/08/14 08:17:40;;;;;;;2.05;0.72;;;;;;;26.61;33.56;101014.52;1669896;84;21407;-66
2021/08/14 08:20:09;;;;;;;2.30;0.90;;;;;;;26.50;33.60;101014.27;1611306;87;21014;-66
2021/08/14 08:22:35;;;;;;;2.70;0.80;;;;;;;26.39;34.01;101008.03;1667489;84;21014;-66
2021/08/14 08:25:04;;;;;;;3.87;0.93;;;;;;;26.32;34.51;101009.42;1663045;85;21060;-69
2021/08/14 08:27:33;;;;;;;1.65;0.75;;;;;;;26.35;33.73;101006.96;1663015;85;21716;-67
2021/08/14 08:29:59;;;;;;;2.62;1.17;;;;;;;26.42;34.02;101009.38;1664854;85;21106;-65
2021/08/14 08:32:25;;;;;;;2.40;0.65;;;;;;;26.51;33.23;101013.73;1659186;85;20988;-67
2021/08/14 08:34:51;;;;;;;0.93;0.93;;;;;;;26.56;33.51;101010.96;1675298;84;21050;-64
2021/08/14 08:37:19;;;;;;;0.60;0.60;;;;;;;26.58;33.23;101007.43;1683902;84;21134;-66
2021/08/14 08:39:46;;;;;;;3.10;0.80;;;;;;;26.15;32.29;100938.16;1673828;84;20992;-65
2021/08/14 08:42:12;;;;;;;1.27;1.05;;;;;;;26.60;32.23;101003.34;1678962;84;21054;-68
2021/08/14 08:44:38;;;;;;;1.27;1.10;;;;;;;26.61;31.27;101002.22;1687122;82;21025;-63
2021/08/14 08:47:09;;;;;;;3.65;0.88;;;;;;;26.65;31.70;100988.00;1670768;84;21631;-65
2021/08/14 08:49:43;;;;;;;0.80;0.80;;;;;;;26.70;31.07;100997.56;1676443;84;21887;-64
2021/08/14 08:52:09;;;;;;;2.90;1.10;;;;;;;26.73;30.74;100989.61;1670869;84;20961;-65
2021/08/14 08:54:35;;;;;;;1.57;0.80;;;;;;;26.69;31.89;100991.80;1674273;84;20995;-64
2021/08/14 08:57:04;;;;;;;3.77;1.27;;;;;;;26.67;32.38;100996.73;1685068;83;21668;-62
2021/08/14 08:59:30;;;;;;;5.08;1.12;;;;;;;26.66;32.44;100993.75;1691174;84;21090;-65
2021/08/14 09:01:56;;;;;;;3.30;1.15;;;;;;;26.70;33.22;100997.00;1674955;84;20980;-65
2021/08/14 09:04:30;;;;;;;1.40;0.90;;;;;;;25.71;33.29;100832.31;1660916;84;21060;-65
2021/08/14 09:06:59;;;;;;;1.55;1.45;;;;;;;26.59;33.76;100989.91;1675429;84;21402;-66
2021/08/14 09:09:31;;;;;;;1.95;1.20;;;;;;;26.53;33.42;100993.21;1671640;84;21059;-66
2021/08/14 09:12:05;;;;;;;0.80;0.80;;;;;;;26.48;33.54;100991.86;1663450;84;21016;-72
2021/08/14 09:14:47;;;;;;;1.00;0.60;;;;;;;26.51;33.65;100996.78;1646291;85;21011;-62
2021/08/14 09:17:18;;;;;;;3.98;1.55;;;;;;;26.58;33.87;100983.63;1655739;84;21072;-61
2021/08/14 09:19:45;;;;;;;1.30;1.20;;;;;;;26.61;33.14;100985.82;1679997;84;21067;-66
2021/08/14 09:22:23;;;;;;;3.80;1.30;;;;;;;26.56;33.69;100984.47;1649883;84;22423;-67
2021/08/14 09:24:49;;;;;;;2.50;1.02;;;;;;;26.50;33.91;100979.28;1679948;84;21196;-66
2021/08/14 09:27:15;;;;;;;2.05;1.15;;;;;;;26.47;33.82;100981.23;1676997;84;21107;-66
2021/08/14 09:29:48;;;;;;;2.15;1.20;;;;;;;26.51;33.54;100975.47;1653193;84;21503;-65
2021/08/14 09:32:19;;;;;;;1.20;1.10;;;;;;;26.49;33.10;100970.27;1673324;84;21083;-64
2021/08/14 09:34:51;;;;;;;0.98;0.90;;;;;;;26.40;33.61;100970.02;1679326;83;21063;-65
2021/08/14 09:37:18;;;;;;;1.35;1.20;;;;;;;26.36;33.48;100973.05;1690688;84;21559;-65
2021/08/14 09:39:57;;;;;;;1.75;1.30;;;;;;;26.35;33.55;100965.97;1653754;85;21027;-65
2021/08/14 09:42:25;;;;;;;3.80;0.80;;;;;;;26.37;33.21;100961.56;1667267;84;21116;-63
2021/08/14 09:45:15;;;;;;;1.77;1.07;;;;;;;26.35;33.43;100951.46;1669857;84;21084;-65
2021/08/14 09:47:43;;;;;;;1.77;1.05;;;;;;;26.39;32.66;100955.27;1646156;85;21069;-64
2021/08/14 09:50:11;;;;;;;3.20;1.25;;;;;;;26.40;32.32;100952.27;1669092;84;21103;-62
2021/08/14 09:52:40;;;;;;;1.65;1.07;;;;;;;26.46;32.57;100943.48;1659326;84;21090;-62
2021/08/14 09:55:15;;;;;;;2.50;1.10;;;;;;;26.55;33.16;100940.45;1665305;84;20966;-59
2021/08/14 09:57:42;;;;;;;1.85;0.95;;;;;;;26.63;32.60;100940.98;1584875;88;21104;-61
2021/08/14 10:00:11;;;;;;;2.15;1.22;;;;;;;26.66;32.40;100944.54;1613821;86;21023;-68
2021/08/14 10:02:42;;;;;;;1.37;1.27;;;;;;;26.59;32.25;100940.17;1620986;87;21122;-61
2021/08/14 10:05:11;;;;;;;1.25;0.88;;;;;;;26.59;32.63;100942.91;1667206;84;20997;-68
2021/08/14 10:07:38;;;;;;;0.80;0.70;;;;;;;26.65;32.40;100942.33;1670220;84;20998;-68
2021/08/14 10:10:06;;;;;;;1.47;0.72;;;;;;;26.70;31.96;100931.94;1670398;84;21024;-68
2021/08/14 10:12:32;;;;;;;1.98;1.07;;;;;;;26.68;32.06;100932.77;1638364;85;21631;-69
2021/08/14 10:14:59;;;;;;;3.40;0.70;;;;;;;26.66;31.96;100929.50;1635356;86;21147;-64
2021/08/14 10:17:27;;;;;;;1.65;0.90;;;;;;;26.63;31.63;100925.95;1639416;86;21067;-66
2021/08/14 10:19:54;;;;;;;4.45;0.68;;;;;;;26.57;31.55;100931.41;1629193;86;21018;-65
2021/08/14 10:22:24;;;;;;;1.92;0.98;;;;;;;26.51;31.97;100924.34;1641088;86;21023;-64
2021/08/14 10:24:52;;;;;;;0.68;0.62;;;;;;;26.51;32.19;100926.27;1646829;85;21027;-66
2021/08/14 10:27:19;;;;;;;1.20;0.93;;;;;;;26.34;32.25;100899.28;1684175;83;21072;-65
2021/08/14 10:29:50;;;;;;;0.93;0.50;;;;;;;26.51;31.97;100924.34;1692576;83;21112;-67
2021/08/14 10:32:40;;;;;;;7.33;1.30;;;;;;;26.50;31.19;100921.88;1654922;85;21105;-66
2021/08/14 10:35:20;;;;;;;1.37;0.85;;;;;;;26.46;31.41;100914.80;1699177;83;21532;-65
2021/08/14 10:37:48;;;;;;;1.35;0.60;;;;;;;26.42;32.20;100915.89;1692096;83;21044;-65
2021/08/14 10:40:17;;;;;;;2.45;0.70;;;;;;;26.43;32.05;100919.47;1686738;83;21011;-66
2021/08/14 10:42:58;;;;;;;2.75;0.75;;;;;;;26.41;32.32;100911.55;1682611;83;21070;-66
2021/08/14 10:45:36;;;;;;;5.47;1.10;;;;;;;26.42;32.65;100907.70;1687032;82;21064;-66
2021/08/14 10:48:06;;;;;;;2.20;1.37;;;;;;;26.49;31.20;100910.14;1690089;83;21643;-65
2021/08/14 10:50:40;;;;;;;2.47;0.68;;;;;;;26.49;31.36;100906.04;1691523;83;21055;-66
2021/08/14 10:53:19;;;;;;;2.95;0.30;;;;;;;26.51;31.79;100903.03;1691177;83;21626;-67
2021/08/14 10:55:53;;;;;;;2.05;0.80;;;;;;;26.59;30.86;100898.33;1682542;83;21087;-66
2021/08/14 10:58:30;;;;;;;0.60;0.45;;;;;;;26.63;31.00;100899.98;1686782;83;21004;-64
2021/08/14 11:01:08;;;;;;;1.07;0.75;;;;;;;26.64;30.65;100896.97;1684752;83;21595;-65
2021/08/14 11:03:37;;;;;;;0.68;0.55;;;;;;;26.64;30.32;100901.07;1688548;83;21055;-65
2021/08/14 11:06:29;;;;;;;2.00;0.70;;;;;;;26.64;30.59;100895.60;1701240;83;21566;-64
2021/08/14 11:09:19;;;;;;;1.57;0.90;;;;;;;26.70;30.51;100893.66;1692829;83;21051;-64
2021/08/14 11:12:00;;;;;;;1.15;0.60;;;;;;;26.80;30.07;100890.84;1696630;83;21023;-63
2021/08/14 11:14:42;;;;;;;1.75;0.60;;;;;;;26.89;29.86;100894.61;1715435;83;21000;-63
2021/08/14 11:17:14;;;;;;;0.95;0.42;;;;;;;26.95;30.22;100885.26;1693752;83;21402;-64
2021/08/14 11:19:53;;;;;;;1.15;0.82;;;;;;;27.04;30.31;100877.27;1691713;84;21002;-64
2021/08/14 11:22:29;;;;;;;1.05;0.70;;;;;;;27.08;30.20;100877.52;1695379;83;21108;-64
2021/08/14 11:25:02;;;;;;;1.82;0.60;;;;;;;27.12;30.34;100871.17;1704239;84;21587;-65
2021/08/14 11:27:35;;;;;;;1.35;1.00;;;;;;;27.18;30.75;100873.31;1688522;83;21609;-65
2021/08/14 11:30:08;;;;;;;1.00;0.57;;;;;;;27.22;29.62;100866.72;1686878;83;21067;-64
2021/08/14 11:32:37;;;;;;;3.42;0.88;;;;;;;27.21;29.95;100865.09;1687149;83;21066;-59
2021/08/14 11:35:07;;;;;;;0.90;0.50;;;;;;;27.25;30.17;100871.63;1697005;82;21053;-61